Startpagina
METAR-TAF:

METAR-TAF

Vliegvelden :

Bevekom, België

Vliegbasis Bevekom

breedte: 50-45N, lengte: 004-46E, hoogte: 105 m

Actueel weer

Dit bericht is 9 minuten geleden gemaakt, om 01:47 UTC
Wind 1 kt uit variabele richting
Temperatuur 11°C
Vochtigheid 94%
Druk 1020 hPa
Zicht: 6000 m
nevel

METAR: EBBE 260147Z AUTO VRB01KT 6000 BR SCT045/// 11/10 Q1020 WHT

Tijdstip: 03:56 (01:56 UTC)

Verwachting

Dit bericht is 10 uur en het 15 minuten geleden gemaakt, om 15:41 UTC
Verwachting geldig van 25 om 19 UTC tot 26 om 07 UTC
Wind 4 kt uit het oosten
Zicht 10 km of meer
Weinig wolken op 2500 ft
Verspreide wolken op 5000 ft
Wijzigt naar
van 26 om 01 UTC tot 26 om 03 UTC
Wind 2 kt uit variabele richting
Zicht: 4000 m
Verspreide wolken op 700 ft
nevel
Tijdelijke
van 26 om 02 UTC tot 26 om 07 UTC
Zicht: 0500 m
Gebroken wolken op 200 ft
mist

TAF: EBBE 251541Z 2519/2607 08004KT 9999 FEW025 SCT050 BECMG 2601/2603 VRB02KT 4000 BR SCT007 TEMPO 2602/2607 0500 FG BKN002

Waarnemingen en weersverwachtingen van meer dan 4000 vliegvelden (METAR en TAF).

De beschikbare stations zijn de gele en rode punten op de kaart.

Ga met uw muis naar het station om de naam te zien.

Klik dan om waarnemingen en weersverwachtingen te zien.

kaart wijzigen: klik op de groene knoppen met een zwart kruis om in te zoomen, op de groene knop met een streepje om uit te zoomen of op de groene pijlen voor aangrenzende kaarten.


METAR-TAF: